METAR Data

Data at: 1002 UTC 03 Jul 2020

LOWL 030950Z 29012KT 9999 FEW026 21/14 Q1018 NOSIG

TAF LOWL 030515Z 0306/0406 26005KT 9999 FEW030 SCT060 TX23/0314Z TN14/0403Z
  TEMPO 0306/0317 28012KT